Time;durP1;ratioP1;P1;durP2;ratioP2;P2;SDS_P1;SDS_P2;PMS_P1;PMS_P2;Temp;Humidity;BMP_temperature;BMP_pressure;BME280_temperature;BME280_humidity;BME280_pressure;Samples;Min_cycle;Max_cycle;Signal;HPM_P1;HPM_P2
2023/09/17 00:00:30;;;;;;;71.05;42.85;;;17.00;99.90;;;;;;5083571;28;20020;-75
2023/09/17 00:02:56;;;;;;;68.07;43.45;;;17.00;99.90;;;;;;5083929;28;20498;-74
2023/09/17 00:05:22;;;;;;;71.90;43.65;;;17.00;99.90;;;;;;5083335;28;20027;-74
2023/09/17 00:07:48;;;;;;;72.82;44.13;;;17.00;99.90;;;;;;5082418;28;20062;-74
2023/09/17 00:10:13;;;;;;;68.82;44.80;;;17.00;99.90;;;;;;5083263;28;20021;-74
2023/09/17 00:12:39;;;;;;;75.82;45.47;;;17.00;99.90;;;;;;5083260;28;20067;-74
2023/09/17 00:15:06;;;;;;;71.40;43.42;;;17.00;99.90;;;;;;5082031;28;20044;-74
2023/09/17 00:17:32;;;;;;;68.82;44.55;;;16.90;99.90;;;;;;5081789;28;20040;-75
2023/09/17 00:19:57;;;;;;;69.07;45.63;;;16.90;99.90;;;;;;5082126;28;20036;-74
2023/09/17 00:22:24;;;;;;;74.50;45.25;;;16.90;99.90;;;;;;5081982;28;20025;-74
2023/09/17 00:24:49;;;;;;;70.45;44.20;;;16.90;99.90;;;;;;5082524;28;20550;-75
2023/09/17 00:27:15;;;;;;;68.50;43.88;;;16.90;99.90;;;;;;5081585;28;20123;-75
2023/09/17 00:29:41;;;;;;;69.32;44.33;;;16.90;99.90;;;;;;5081759;28;20025;-74
2023/09/17 00:32:07;;;;;;;73.18;46.28;;;16.90;99.90;;;;;;5081699;28;20024;-75
2023/09/17 00:34:32;;;;;;;73.90;45.75;;;16.90;99.90;;;;;;5081212;28;20056;-75
2023/09/17 00:37:00;;;;;;;77.35;46.60;;;16.90;99.90;;;;;;5081378;28;20024;-74
2023/09/17 00:39:26;;;;;;;76.50;46.22;;;16.80;99.90;;;;;;5081403;28;20096;-74
2023/09/17 00:41:52;;;;;;;74.75;44.90;;;16.80;99.90;;;;;;5081722;28;20658;-73
2023/09/17 00:44:18;;;;;;;78.57;46.13;;;16.80;99.90;;;;;;5082560;28;20029;-75
2023/09/17 00:46:44;;;;;;;76.40;46.95;;;16.80;99.90;;;;;;5082336;28;20084;-74
2023/09/17 00:49:13;;;;;;;79.68;46.47;;;16.80;99.90;;;;;;5081441;28;20063;-75
2023/09/17 00:51:42;;;;;;;76.65;46.97;;;16.80;99.90;;;;;;5082369;28;20025;-75
2023/09/17 00:54:09;;;;;;;79.70;47.90;;;16.80;99.90;;;;;;5080532;28;20128;-75
2023/09/17 00:56:36;;;;;;;81.60;48.28;;;16.80;99.90;;;;;;5080187;28;20512;-75
2023/09/17 00:59:05;;;;;;;83.68;49.35;;;16.80;99.90;;;;;;5081685;28;20021;-76
2023/09/17 01:01:30;;;;;;;84.65;51.85;;;16.80;99.90;;;;;;5080579;28;20017;-74
2023/09/17 01:03:56;;;;;;;79.60;50.55;;;16.70;99.90;;;;;;5080778;28;20027;-75
2023/09/17 01:06:22;;;;;;;85.60;51.47;;;16.70;99.90;;;;;;5080363;28;20035;-75
2023/09/17 01:08:48;;;;;;;84.20;50.97;;;16.70;99.90;;;;;;5081931;28;20413;-75
2023/09/17 01:11:14;;;;;;;81.32;48.45;;;16.70;99.90;;;;;;5080289;28;20031;-74
2023/09/17 01:13:41;;;;;;;79.22;49.28;;;16.70;99.90;;;;;;5081915;28;20059;-74
2023/09/17 01:16:07;;;;;;;83.10;49.20;;;16.60;99.90;;;;;;5081183;28;20025;-74
2023/09/17 01:18:34;;;;;;;80.13;49.00;;;16.60;99.90;;;;;;5080435;28;20421;-76
2023/09/17 01:21:33;;;;;;;81.68;49.65;;;16.50;99.90;;;;;;5080118;28;20025;-74
2023/09/17 01:24:13;;;;;;;83.63;49.13;;;16.50;99.90;;;;;;5078589;28;20036;-74
2023/09/17 01:26:40;;;;;;;79.95;48.13;;;16.50;99.90;;;;;;5080933;28;20024;-75
2023/09/17 01:29:06;;;;;;;74.50;47.65;;;16.40;99.90;;;;;;5081876;28;20081;-75
2023/09/17 01:31:34;;;;;;;66.13;40.85;;;16.40;99.90;;;;;;5082355;28;20025;-74
2023/09/17 01:34:01;;;;;;;58.05;36.20;;;16.40;99.90;;;;;;5081849;28;20021;-74
2023/09/17 01:36:33;;;;;;;56.05;35.45;;;16.30;99.90;;;;;;5080513;28;20036;-74
2023/09/17 01:39:12;;;;;;;60.63;38.17;;;16.30;99.90;;;;;;5080656;28;20699;-74
2023/09/17 01:41:41;;;;;;;65.07;41.17;;;16.30;99.90;;;;;;5081805;28;20090;-76
2023/09/17 01:44:08;;;;;;;64.45;40.10;;;16.30;99.90;;;;;;5079837;28;20031;-76
2023/09/17 01:46:35;;;;;;;71.45;44.38;;;16.20;99.90;;;;;;5080348;28;20027;-75
2023/09/17 01:49:01;;;;;;;68.88;42.85;;;16.20;99.90;;;;;;5080993;28;20032;-74
2023/09/17 01:51:31;;;;;;;80.72;48.45;;;16.20;99.90;;;;;;5079863;28;20280;-75
2023/09/17 01:53:57;;;;;;;82.40;48.80;;;16.20;99.90;;;;;;5081109;28;20467;-74
2023/09/17 01:56:23;;;;;;;87.88;51.13;;;16.20;99.90;;;;;;5080373;28;20123;-75
2023/09/17 01:58:48;;;;;;;87.63;51.50;;;16.20;99.90;;;;;;5079742;28;20037;-74
2023/09/17 02:01:15;;;;;;;103.18;57.55;;;16.20;99.90;;;;;;5080983;28;20051;-75
2023/09/17 02:03:40;;;;;;;96.20;54.10;;;16.20;99.90;;;;;;5080600;28;20013;-75
2023/09/17 02:06:06;;;;;;;106.25;57.40;;;16.20;99.90;;;;;;5079426;28;20025;-74
2023/09/17 02:08:32;;;;;;;99.32;57.28;;;16.20;99.90;;;;;;5080936;28;20483;-76
2023/09/17 02:10:57;;;;;;;104.70;57.28;;;16.30;99.90;;;;;;5079840;28;20020;-74
2023/09/17 02:13:23;;;;;;;108.35;59.60;;;16.30;99.90;;;;;;5079660;28;20051;-75
2023/09/17 02:15:49;;;;;;;104.18;58.97;;;16.20;99.90;;;;;;5079207;28;20020;-75
2023/09/17 02:18:15;;;;;;;102.15;57.60;;;16.30;99.90;;;;;;5079206;28;20036;-75
2023/09/17 02:20:40;;;;;;;110.80;58.55;;;16.30;99.90;;;;;;5080974;28;20032;-77
2023/09/17 02:23:09;;;;;;;100.18;56.45;;;16.30;99.90;;;;;;5080589;28;20059;-77
2023/09/17 02:25:34;;;;;;;112.30;60.50;;;16.30;99.90;;;;;;5079109;28;20032;-76
2023/09/17 02:28:02;;;;;;;101.10;56.55;;;16.30;99.90;;;;;;5080645;28;20037;-75
2023/09/17 02:30:28;;;;;;;103.63;57.88;;;16.30;99.90;;;;;;5080799;28;20021;-74
2023/09/17 02:32:54;;;;;;;105.75;56.88;;;16.30;99.90;;;;;;5080804;28;20024;-75
2023/09/17 02:35:19;;;;;;;113.53;60.85;;;16.30;99.90;;;;;;5080846;28;20056;-75
2023/09/17 02:37:45;;;;;;;112.93;60.53;;;16.30;99.90;;;;;;5079119;28;20489;-75
2023/09/17 02:40:11;;;;;;;114.50;59.55;;;16.30;99.90;;;;;;5081140;28;20016;-75
2023/09/17 02:42:39;;;;;;;124.40;65.65;;;16.30;99.90;;;;;;5081061;28;20132;-76
2023/09/17 02:45:08;;;;;;;119.32;64.97;;;16.20;99.90;;;;;;5080017;28;20051;-77
2023/09/17 02:47:34;;;;;;;123.82;68.18;;;16.20;99.90;;;;;;5078631;28;20089;-77
2023/09/17 02:50:00;;;;;;;119.68;64.38;;;16.20;99.90;;;;;;5080089;28;20496;-75
2023/09/17 02:52:26;;;;;;;127.30;66.40;;;16.20;99.90;;;;;;5081099;28;20020;-75
2023/09/17 02:54:53;;;;;;;118.15;65.68;;;16.20;99.90;;;;;;5079057;28;20024;-75
2023/09/17 02:57:19;;;;;;;132.23;70.60;;;16.20;99.90;;;;;;5079333;28;20020;-76
2023/09/17 02:59:45;;;;;;;134.07;71.22;;;16.20;99.90;;;;;;5080664;28;20024;-76
2023/09/17 03:02:10;;;;;;;125.00;69.88;;;16.20;99.90;;;;;;5079794;28;20016;-76
2023/09/17 03:04:36;;;;;;;135.05;70.47;;;16.20;99.90;;;;;;5079715;28;20452;-76
2023/09/17 03:07:04;;;;;;;138.07;70.68;;;16.20;99.90;;;;;;5079555;28;20021;-77
2023/09/17 03:09:30;;;;;;;145.60;75.28;;;16.20;99.90;;;;;;5080783;28;20036;-75
2023/09/17 03:11:55;;;;;;;133.48;71.00;;;16.20;99.90;;;;;;5079510;28;20043;-76
2023/09/17 03:14:21;;;;;;;141.70;71.80;;;16.10;99.90;;;;;;5078540;28;20381;-76
2023/09/17 03:16:47;;;;;;;135.68;72.00;;;16.10;99.90;;;;;;5080949;28;20043;-76
2023/09/17 03:19:13;;;;;;;143.93;72.97;;;16.10;99.90;;;;;;5080704;28;20028;-75
2023/09/17 03:21:40;;;;;;;147.70;73.35;;;16.10;99.90;;;;;;5079235;28;20059;-76
2023/09/17 03:24:07;;;;;;;137.20;71.03;;;16.10;99.90;;;;;;5081273;28;20485;-76
2023/09/17 03:26:33;;;;;;;144.15;72.70;;;16.10;99.90;;;;;;5084176;28;20024;-77
2023/09/17 03:28:59;;;;;;;149.43;73.78;;;16.10;99.90;;;;;;5082696;28;20065;-76
2023/09/17 03:31:24;;;;;;;146.63;73.55;;;16.20;99.90;;;;;;5081368;28;20059;-75
2023/09/17 03:33:50;;;;;;;150.98;72.75;;;16.10;99.90;;;;;;5081896;28;20035;-77
2023/09/17 03:36:15;;;;;;;146.00;73.78;;;16.10;99.90;;;;;;5083836;28;20040;-76
2023/09/17 03:38:41;;;;;;;148.90;72.25;;;16.20;99.90;;;;;;5082810;28;20024;-75
2023/09/17 03:41:07;;;;;;;132.77;68.25;;;16.20;99.90;;;;;;5082170;28;20126;-78
2023/09/17 03:43:34;;;;;;;142.40;66.30;;;16.20;99.90;;;;;;5081864;28;20020;-77
2023/09/17 03:46:03;;;;;;;132.27;68.20;;;16.20;99.90;;;;;;5083634;28;20024;-75
2023/09/17 03:48:29;;;;;;;142.48;69.10;;;16.20;99.90;;;;;;5083384;28;20068;-76
2023/09/17 03:50:55;;;;;;;149.27;67.90;;;16.20;99.90;;;;;;5082130;28;20043;-77
2023/09/17 03:53:21;;;;;;;130.25;62.30;;;16.20;99.90;;;;;;5084024;28;20059;-75
2023/09/17 03:55:47;;;;;;;148.88;67.70;;;16.20;99.90;;;;;;5082272;28;20028;-76
2023/09/17 03:58:12;;;;;;;145.90;66.80;;;16.30;99.90;;;;;;5083609;28;20086;-76
2023/09/17 04:00:38;;;;;;;138.55;66.20;;;16.20;99.90;;;;;;5082639;28;20470;-76
2023/09/17 04:03:05;;;;;;;130.27;63.63;;;16.20;99.90;;;;;;5082542;28;20040;-76
2023/09/17 04:05:30;;;;;;;129.85;63.85;;;16.20;99.90;;;;;;5082446;28;20043;-77
2023/09/17 04:07:56;;;;;;;131.50;64.30;;;16.20;99.90;;;;;;5082303;28;20462;-75
2023/09/17 04:10:21;;;;;;;136.10;64.72;;;16.20;99.90;;;;;;5083178;28;20572;-76
2023/09/17 04:12:47;;;;;;;131.85;60.92;;;16.30;99.90;;;;;;5083268;28;20028;-76
2023/09/17 04:15:18;;;;;;;123.15;60.40;;;16.30;99.90;;;;;;5083547;28;20032;-75
2023/09/17 04:17:45;;;;;;;124.82;59.33;;;16.20;99.90;;;;;;5082033;28;20100;-75
2023/09/17 04:20:13;;;;;;;137.27;63.70;;;16.20;99.90;;;;;;5082192;28;20123;-76
2023/09/17 04:22:40;;;;;;;133.25;60.40;;;16.30;99.90;;;;;;5082868;28;20024;-75
2023/09/17 04:25:07;;;;;;;145.63;61.65;;;16.30;99.90;;;;;;5083104;28;20024;-77
2023/09/17 04:27:33;;;;;;;131.90;59.28;;;16.30;99.90;;;;;;5082023;28;20025;-75
2023/09/17 04:29:59;;;;;;;131.70;58.95;;;16.30;99.90;;;;;;5083464;28;20097;-75
2023/09/17 04:32:24;;;;;;;125.30;56.55;;;16.30;99.90;;;;;;5082980;28;20020;-76
2023/09/17 04:34:50;;;;;;;132.43;57.47;;;16.30;99.90;;;;;;5081703;28;20052;-76
2023/09/17 04:37:19;;;;;;;127.45;55.92;;;16.30;99.90;;;;;;5080802;28;20020;-76
2023/09/17 04:39:46;;;;;;;125.15;56.20;;;16.30;99.90;;;;;;5080744;28;20024;-75
2023/09/17 04:42:12;;;;;;;130.38;55.28;;;16.30;99.90;;;;;;5083072;28;20035;-76
2023/09/17 04:44:37;;;;;;;118.75;53.33;;;16.20;99.90;;;;;;5080607;28;20016;-76
2023/09/17 04:47:03;;;;;;;118.90;53.05;;;16.20;99.90;;;;;;5082986;28;20039;-77
2023/09/17 04:49:31;;;;;;;116.70;52.47;;;16.30;99.90;;;;;;5082890;28;20032;-76
2023/09/17 04:51:57;;;;;;;124.63;54.17;;;16.30;99.90;;;;;;5081452;28;20027;-75
2023/09/17 04:54:23;;;;;;;114.85;52.90;;;16.20;99.90;;;;;;5082592;28;20036;-75
2023/09/17 04:56:49;;;;;;;113.93;51.05;;;16.30;99.90;;;;;;5081312;28;20025;-75
2023/09/17 04:59:15;;;;;;;106.95;48.90;;;16.30;99.90;;;;;;5081002;28;20036;-75
2023/09/17 05:01:41;;;;;;;96.68;46.58;;;16.30;99.90;;;;;;5082126;28;20036;-75
2023/09/17 05:04:07;;;;;;;105.18;47.92;;;16.30;99.90;;;;;;5082733;28;20079;-75
2023/09/17 05:06:33;;;;;;;108.78;48.92;;;16.30;99.90;;;;;;5078899;28;20029;-76
2023/09/17 05:08:58;;;;;;;101.60;46.50;;;16.30;99.90;;;;;;5080227;28;20040;-76
2023/09/17 05:11:24;;;;;;;109.15;46.65;;;16.30;99.90;;;;;;5079903;28;20024;-76
2023/09/17 05:13:50;;;;;;;105.85;47.50;;;16.30;99.90;;;;;;5081940;28;20037;-75
2023/09/17 05:16:16;;;;;;;100.35;46.35;;;16.30;99.90;;;;;;5080984;28;20477;-77
2023/09/17 05:18:43;;;;;;;93.28;43.60;;;16.30;99.90;;;;;;5082196;28;20012;-77
2023/09/17 05:21:09;;;;;;;76.57;39.35;;;16.30;99.90;;;;;;5081414;28;20024;-77
2023/09/17 05:23:35;;;;;;;74.78;39.53;;;16.20;99.90;;;;;;5081003;28;20069;-77
2023/09/17 05:26:01;;;;;;;72.75;38.63;;;16.20;99.90;;;;;;5082179;28;20489;-75
2023/09/17 05:28:26;;;;;;;69.68;37.45;;;16.10;99.90;;;;;;5081620;28;20116;-76
2023/09/17 05:30:55;;;;;;;79.20;39.65;;;16.10;99.90;;;;;;5081990;28;20021;-75
2023/09/17 05:33:21;;;;;;;88.05;42.03;;;16.10;99.90;;;;;;5080086;28;20020;-76
2023/09/17 05:35:47;;;;;;;88.93;41.88;;;16.10;99.90;;;;;;5081399;28;20465;-76
2023/09/17 05:38:13;;;;;;;87.55;43.15;;;16.10;99.90;;;;;;5081920;28;20067;-75
2023/09/17 05:40:38;;;;;;;88.40;41.83;;;16.10;99.90;;;;;;5079396;28;20024;-77
2023/09/17 05:43:04;;;;;;;89.18;40.63;;;16.10;99.90;;;;;;5079690;28;20025;-76
2023/09/17 05:45:30;;;;;;;82.05;40.33;;;16.10;99.90;;;;;;5078829;28;20056;-76
2023/09/17 05:47:55;;;;;;;92.32;40.78;;;16.10;99.90;;;;;;5078628;28;20081;-74
2023/09/17 05:50:21;;;;;;;92.05;41.53;;;16.10;99.90;;;;;;5080665;28;20047;-75
2023/09/17 05:52:47;;;;;;;96.85;41.70;;;16.10;99.90;;;;;;5080072;28;20031;-75
2023/09/17 05:55:12;;;;;;;99.25;42.05;;;16.10;99.90;;;;;;5081434;28;20074;-75
2023/09/17 05:57:38;;;;;;;91.38;38.63;;;16.10;99.90;;;;;;5081526;28;20020;-75
2023/09/17 06:00:04;;;;;;;86.95;38.72;;;16.20;99.90;;;;;;5080452;28;20385;-76
2023/09/17 06:02:30;;;;;;;85.47;36.05;;;16.20;99.90;;;;;;5079488;28;20556;-76
2023/09/17 06:04:56;;;;;;;86.13;36.78;;;16.20;99.90;;;;;;5079355;28;20084;-76
2023/09/17 06:07:22;;;;;;;86.57;36.28;;;16.20;99.90;;;;;;5080149;28;20059;-75
2023/09/17 06:09:48;;;;;;;79.25;33.70;;;16.20;99.90;;;;;;5080770;28;20397;-76
2023/09/17 06:12:15;;;;;;;82.40;34.95;;;16.20;99.90;;;;;;5081543;28;20017;-77
2023/09/17 06:14:41;;;;;;;85.38;34.83;;;16.20;99.90;;;;;;5080203;28;20024;-76
2023/09/17 06:17:06;;;;;;;83.70;36.08;;;16.20;99.90;;;;;;5081400;28;20036;-76
2023/09/17 06:19:33;;;;;;;88.70;36.88;;;16.10;99.90;;;;;;5080312;28;20021;-76
2023/09/17 06:21:59;;;;;;;89.28;37.72;;;16.10;99.90;;;;;;5079378;28;20020;-77
2023/09/17 06:24:25;;;;;;;84.65;35.00;;;16.20;99.90;;;;;;5080112;28;20020;-75
2023/09/17 06:26:51;;;;;;;84.93;37.47;;;16.20;99.90;;;;;;5079938;28;20025;-75
2023/09/17 06:29:16;;;;;;;83.35;36.42;;;16.20;99.90;;;;;;5079003;28;20032;-76
2023/09/17 06:31:42;;;;;;;85.40;36.15;;;16.20;99.90;;;;;;5079910;28;20020;-76
2023/09/17 06:34:09;;;;;;;76.18;34.22;;;16.20;99.90;;;;;;5080285;28;20097;-78
2023/09/17 06:36:35;;;;;;;86.85;35.58;;;16.20;99.90;;;;;;5079571;28;20036;-75
2023/09/17 06:39:02;;;;;;;76.20;34.40;;;16.20;99.90;;;;;;5080837;28;20020;-75
2023/09/17 06:41:28;;;;;;;85.32;35.25;;;16.30;99.90;;;;;;5081459;28;20020;-76
2023/09/17 06:43:53;;;;;;;79.55;34.53;;;16.30;99.90;;;;;;5079697;28;21393;-76
2023/09/17 06:46:19;;;;;;;78.95;34.50;;;16.30;99.90;;;;;;5079890;28;20493;-75
2023/09/17 06:48:44;;;;;;;78.30;34.55;;;16.40;99.90;;;;;;5079393;28;20044;-74
2023/09/17 06:51:10;;;;;;;77.15;34.55;;;16.40;99.90;;;;;;5081010;28;20020;-75
2023/09/17 06:53:36;;;;;;;78.57;36.05;;;16.40;99.90;;;;;;5081081;28;20495;-76
2023/09/17 06:56:02;;;;;;;77.32;36.25;;;16.40;99.90;;;;;;5081493;28;20025;-75
2023/09/17 06:58:28;;;;;;;74.13;35.63;;;16.50;99.90;;;;;;5080851;28;20404;-75
2023/09/17 07:00:54;;;;;;;72.15;36.50;;;16.50;99.90;;;;;;5082818;28;20481;-75
2023/09/17 07:03:19;;;;;;;76.57;35.72;;;16.50;99.90;;;;;;5083557;28;20009;-77
2023/09/17 07:05:45;;;;;;;74.97;36.15;;;16.60;99.90;;;;;;5084278;28;20058;-76
2023/09/17 07:08:11;;;;;;;74.88;36.42;;;16.60;99.90;;;;;;5083383;28;20040;-75
2023/09/17 07:10:36;;;;;;;65.93;35.15;;;16.70;99.90;;;;;;5084606;28;20083;-75
2023/09/17 07:13:02;;;;;;;73.90;37.35;;;16.70;99.90;;;;;;5084581;28;20021;-77
2023/09/17 07:15:28;;;;;;;64.63;36.20;;;16.70;99.90;;;;;;5083059;28;20561;-77
2023/09/17 07:17:54;;;;;;;72.25;37.35;;;16.80;99.90;;;;;;5084240;28;20023;-75
2023/09/17 07:20:19;;;;;;;59.10;34.78;;;16.80;99.90;;;;;;5082509;28;20078;-74
2023/09/17 07:22:49;;;;;;;64.95;34.55;;;16.90;99.90;;;;;;5083086;28;20017;-76
2023/09/17 07:25:15;;;;;;;64.68;35.58;;;17.00;99.90;;;;;;5084080;28;20033;-75
2023/09/17 07:27:41;;;;;;;65.45;35.78;;;17.00;99.90;;;;;;5083416;28;20047;-77
2023/09/17 07:30:07;;;;;;;60.97;34.42;;;17.00;99.90;;;;;;5084719;28;20017;-76
2023/09/17 07:32:33;;;;;;;60.45;33.90;;;17.10;99.90;;;;;;5084625;28;20047;-76
2023/09/17 07:35:02;;;;;;;59.63;34.95;;;17.10;99.90;;;;;;5083994;28;20052;-75
2023/09/17 07:37:28;;;;;;;55.67;33.85;;;17.10;99.90;;;;;;5084388;28;20026;-73
2023/09/17 07:39:56;;;;;;;56.58;33.92;;;17.20;99.90;;;;;;5082802;28;20055;-75
2023/09/17 07:42:22;;;;;;;52.60;33.15;;;17.20;99.90;;;;;;5081090;28;20013;-74
2023/09/17 07:44:48;;;;;;;57.60;34.38;;;17.30;99.90;;;;;;5082077;28;20032;-74
2023/09/17 07:47:14;;;;;;;57.85;34.95;;;17.30;99.90;;;;;;5083212;28;20025;-73
2023/09/17 07:49:40;;;;;;;61.00;36.78;;;17.40;99.90;;;;;;5083147;28;20036;-75
2023/09/17 07:52:06;;;;;;;57.60;34.95;;;17.50;99.90;;;;;;5083957;28;20039;-75
2023/09/17 07:54:42;;;;;;;48.88;30.42;;;17.60;99.90;;;;;;5083504;28;20102;-75
2023/09/17 07:57:10;;;;;;;48.95;30.92;;;17.70;99.90;;;;;;5082632;28;20443;-76
2023/09/17 07:59:36;;;;;;;51.05;33.83;;;17.80;99.90;;;;;;5082294;28;20036;-78
2023/09/17 08:02:02;;;;;;;53.45;32.78;;;17.90;99.90;;;;;;5084165;28;20392;-74
2023/09/17 08:04:28;;;;;;;44.92;31.25;;;18.00;99.90;;;;;;5084009;28;20021;-72
2023/09/17 08:06:54;;;;;;;48.05;31.85;;;18.10;99.90;;;;;;5083763;28;20027;-72
2023/09/17 08:09:20;;;;;;;41.30;29.27;;;18.20;99.90;;;;;;5083320;28;20036;-74
2023/09/17 08:11:46;;;;;;;41.53;28.63;;;18.30;99.90;;;;;;5082204;28;20021;-72
2023/09/17 08:14:13;;;;;;;43.28;29.48;;;18.40;99.90;;;;;;5083707;28;20033;-72
2023/09/17 08:16:40;;;;;;;38.38;27.42;;;18.40;99.90;;;;;;5083259;28;20159;-75
2023/09/17 08:19:06;;;;;;;40.75;27.55;;;18.40;99.90;;;;;;5082633;28;20073;-73
2023/09/17 08:21:32;;;;;;;40.30;26.77;;;18.40;99.90;;;;;;5082404;28;20025;-74
2023/09/17 08:23:59;;;;;;;36.95;25.85;;;18.50;99.90;;;;;;5081502;28;20013;-75
2023/09/17 08:26:28;;;;;;;37.95;26.75;;;18.50;99.90;;;;;;5083523;28;20044;-73
2023/09/17 08:28:58;;;;;;;32.40;23.80;;;18.70;99.90;;;;;;5080111;28;20067;-74
2023/09/17 08:31:25;;;;;;;33.80;25.05;;;18.80;99.90;;;;;;5079242;28;20037;-73
2023/09/17 08:33:52;;;;;;;31.83;24.13;;;18.90;99.90;;;;;;5079009;28;20024;-75
2023/09/17 08:36:23;;;;;;;31.67;23.48;;;19.00;99.90;;;;;;5073729;28;20112;-72
2023/09/17 08:38:50;;;;;;;32.13;23.80;;;19.10;99.90;;;;;;5079802;28;20117;-73
2023/09/17 08:41:18;;;;;;;32.33;23.95;;;19.20;99.90;;;;;;5081037;28;20051;-73
2023/09/17 08:43:45;;;;;;;32.67;24.40;;;19.20;99.90;;;;;;5080418;28;20087;-74
2023/09/17 08:46:13;;;;;;;28.40;22.25;;;19.20;99.90;;;;;;5080101;28;20020;-75
2023/09/17 08:48:39;;;;;;;32.58;24.00;;;19.20;99.90;;;;;;5059739;28;20116;-74
2023/09/17 08:51:09;;;;;;;32.72;23.45;;;19.20;99.90;;;;;;5061682;28;20028;-75
2023/09/17 08:53:53;;;;;;;34.05;23.88;;;19.20;99.90;;;;;;5061061;28;20036;-75
2023/09/17 08:56:20;;;;;;;30.23;24.05;;;19.20;99.90;;;;;;5061125;28;20021;-75
2023/09/17 08:58:55;;;;;;;28.30;21.50;;;19.20;99.90;;;;;;5061231;28;20029;-75
2023/09/17 09:01:24;;;;;;;28.77;21.80;;;19.30;99.90;;;;;;5060018;28;20128;-74
2023/09/17 09:03:52;;;;;;;28.20;22.25;;;19.50;99.90;;;;;;5061116;28;20088;-73
2023/09/17 09:06:24;;;;;;;32.60;21.65;;;19.50;99.90;;;;;;5061358;28;20025;-73
2023/09/17 09:08:52;;;;;;;27.65;19.83;;;19.60;99.90;;;;;;5057595;28;20045;-75
2023/09/17 09:11:21;;;;;;;23.52;18.02;;;19.70;99.90;;;;;;5058778;28;20025;-76
2023/09/17 09:13:50;;;;;;;22.05;16.38;;;19.90;99.90;;;;;;5072883;28;20039;-75
2023/09/17 09:16:16;;;;;;;26.23;20.98;;;20.00;99.90;;;;;;5058178;28;20088;-75
2023/09/17 09:18:42;;;;;;;24.25;19.17;;;20.10;99.90;;;;;;5057096;28;20834;-74
2023/09/17 09:21:10;;;;;;;25.35;20.48;;;20.20;99.90;;;;;;5056561;28;20017;-76
2023/09/17 09:23:35;;;;;;;24.75;20.13;;;20.30;99.90;;;;;;5060498;28;20036;-74
2023/09/17 09:26:01;;;;;;;25.25;19.40;;;20.40;99.90;;;;;;5061126;28;20497;-75
2023/09/17 09:28:30;;;;;;;25.17;18.65;;;20.50;99.90;;;;;;5059502;28;20045;-77
2023/09/17 09:30:57;;;;;;;22.55;17.63;;;20.60;99.90;;;;;;5061643;28;20048;-73
2023/09/17 09:33:24;;;;;;;19.13;16.08;;;20.80;99.90;;;;;;5059562;28;20059;-77
2023/09/17 09:35:49;;;;;;;19.15;15.40;;;21.00;99.90;;;;;;5060949;28;20140;-74
2023/09/17 09:38:17;;;;;;;18.77;14.70;;;21.20;99.90;;;;;;5059891;28;20056;-74
2023/09/17 09:40:44;;;;;;;17.65;13.95;;;21.30;99.90;;;;;;5060431;28;20164;-75
2023/09/17 09:43:31;;;;;;;16.15;13.75;;;21.50;99.90;;;;;;5062030;28;20023;-75
2023/09/17 09:46:04;;;;;;;18.85;14.95;;;21.60;99.90;;;;;;5059885;28;20024;-75
2023/09/17 09:48:30;;;;;;;18.08;14.73;;;21.70;99.90;;;;;;5060484;28;20417;-75
2023/09/17 09:50:56;;;;;;;14.82;11.98;;;21.70;99.90;;;;;;5060216;28;20024;-74
2023/09/17 09:53:22;;;;;;;16.13;10.60;;;21.70;99.90;;;;;;5060885;28;20025;-75
2023/09/17 09:55:48;;;;;;;13.10;8.98;;;21.80;99.90;;;;;;5061556;28;20730;-74
2023/09/17 09:58:14;;;;;;;11.48;9.25;;;21.90;99.90;;;;;;5061411;28;20033;-75
2023/09/17 10:00:44;;;;;;;12.38;9.40;;;22.00;99.90;;;;;;5059858;28;20476;-76
2023/09/17 10:03:12;;;;;;;16.33;9.45;;;22.00;99.90;;;;;;5061563;28;20025;-75
2023/09/17 10:05:42;;;;;;;12.73;9.48;;;22.10;99.90;;;;;;5059796;28;20025;-74
2023/09/17 10:08:12;;;;;;;15.20;9.93;;;22.10;99.90;;;;;;5060495;28;20043;-75
2023/09/17 10:10:40;;;;;;;14.75;9.55;;;22.10;99.90;;;;;;5059838;28;20029;-77
2023/09/17 10:13:10;;;;;;;12.50;9.13;;;22.20;99.90;;;;;;5060022;28;20025;-78
2023/09/17 10:15:37;;;;;;;13.15;8.85;;;22.30;99.90;;;;;;5061758;28;20025;-75
2023/09/17 10:18:10;;;;;;;18.33;9.45;;;22.40;99.90;;;;;;5060177;28;20029;-77
2023/09/17 10:20:38;;;;;;;11.35;9.75;;;22.50;99.90;;;;;;5059935;28;20051;-76
2023/09/17 10:23:05;;;;;;;10.05;8.23;;;22.70;99.90;;;;;;5060734;28;20029;-72
2023/09/17 10:25:32;;;;;;;10.10;8.40;;;22.80;99.90;;;;;;5060371;28;20893;-74
2023/09/17 10:28:01;;;;;;;10.65;8.52;;;22.90;99.90;;;;;;5058603;28;21055;-75
2023/09/17 10:30:28;;;;;;;9.80;7.38;;;22.90;99.90;;;;;;5061026;28;20024;-76
2023/09/17 10:32:55;;;;;;;12.57;8.00;;;23.00;99.90;;;;;;5050565;28;20088;-75
2023/09/17 10:35:21;;;;;;;12.98;8.48;;;23.00;99.90;;;;;;5054696;28;20128;-76
2023/09/17 10:37:48;;;;;;;8.15;7.35;;;23.00;99.90;;;;;;5060001;28;20036;-75
2023/09/17 10:40:15;;;;;;;7.93;7.03;;;23.10;99.90;;;;;;5062632;28;20043;-76
2023/09/17 10:42:42;;;;;;;7.43;6.65;;;23.20;99.90;;;;;;5060725;28;20131;-77
2023/09/17 10:45:10;;;;;;;9.70;6.47;;;23.20;99.90;;;;;;5063913;28;20033;-74
2023/09/17 10:47:38;;;;;;;8.18;6.93;;;23.30;99.90;;;;;;5060227;28;20027;-74
2023/09/17 10:50:04;;;;;;;9.20;6.60;;;23.30;99.90;;;;;;5062804;28;20029;-74
2023/09/17 10:52:31;;;;;;;8.45;6.60;;;23.40;99.90;;;;;;5062212;28;20031;-74
2023/09/17 10:54:57;;;;;;;7.95;6.55;;;23.40;99.90;;;;;;5058461;28;20021;-74
2023/09/17 10:57:37;;;;;;;8.55;6.30;;;23.50;99.90;;;;;;5059832;28;20144;-75
2023/09/17 11:00:07;;;;;;;8.10;6.10;;;23.80;99.90;;;;;;5070148;28;20090;-76
2023/09/17 11:02:36;;;;;;;9.35;6.18;;;24.00;99.90;;;;;;5063080;28;20147;-75
2023/09/17 11:05:04;;;;;;;7.53;5.55;;;24.10;99.90;;;;;;5062428;28;20044;-76
2023/09/17 11:07:31;;;;;;;5.65;5.07;;;24.00;99.90;;;;;;5064189;28;20021;-73
2023/09/17 11:09:58;;;;;;;6.90;5.80;;;23.90;99.90;;;;;;5055073;28;20074;-77
2023/09/17 11:12:25;;;;;;;6.32;5.70;;;23.90;99.90;;;;;;5060383;28;20021;-77
2023/09/17 11:14:51;;;;;;;8.43;6.25;;;23.90;99.90;;;;;;5062197;28;20029;-77
2023/09/17 11:17:18;;;;;;;7.35;6.03;;;24.10;99.90;;;;;;5049480;28;20486;-76
2023/09/17 11:19:44;;;;;;;10.05;5.95;;;24.20;99.90;;;;;;5050573;28;20028;-75
2023/09/17 11:22:12;;;;;;;6.47;5.78;;;24.40;99.90;;;;;;5059068;28;20093;-76
2023/09/17 11:24:39;;;;;;;6.70;5.60;;;24.50;99.90;;;;;;5062354;28;20029;-75
2023/09/17 11:27:06;;;;;;;7.93;5.60;;;24.40;99.90;;;;;;5063843;28;20032;-76
2023/09/17 11:29:45;;;;;;;6.85;5.72;;;24.40;99.90;;;;;;5064424;28;20032;-78
2023/09/17 11:32:13;;;;;;;7.05;5.60;;;24.30;99.90;;;;;;5064429;28;20025;-74
2023/09/17 11:34:43;;;;;;;9.23;5.40;;;24.10;99.90;;;;;;5063265;28;20055;-73
2023/09/17 11:37:09;;;;;;;6.85;5.57;;;23.90;99.90;;;;;;5063164;28;20020;-74
2023/09/17 11:39:51;;;;;;;12.43;5.68;;;23.80;99.90;;;;;;5064552;28;20025;-75
2023/09/17 11:42:17;;;;;;;10.55;6.20;;;23.70;99.90;;;;;;5063734;28;20017;-74
2023/09/17 11:44:45;;;;;;;9.88;5.32;;;23.60;99.90;;;;;;5062177;28;20516;-76
2023/09/17 11:47:12;;;;;;;7.70;6.13;;;23.60;99.90;;;;;;5063537;28;20036;-74
2023/09/17 11:49:39;;;;;;;6.97;5.95;;;23.50;99.90;;;;;;5063898;28;20064;-76
2023/09/17 11:52:12;;;;;;;9.07;5.60;;;23.40;99.90;;;;;;5062748;28;20040;-75
2023/09/17 11:54:52;;;;;;;11.55;5.65;;;23.40;99.90;;;;;;5063903;28;20032;-74
2023/09/17 11:57:27;;;;;;;6.97;5.38;;;23.30;99.90;;;;;;5064034;28;20045;-73
2023/09/17 11:59:55;;;;;;;6.40;5.70;;;23.20;99.90;;;;;;5063465;28;20035;-75
2023/09/17 12:02:22;;;;;;;14.32;6.25;;;23.10;99.90;;;;;;5063519;28;20032;-74
2023/09/17 12:04:49;;;;;;;7.53;6.47;;;22.90;99.90;;;;;;5063457;28;20021;-76
2023/09/17 12:07:14;;;;;;;12.63;7.20;;;22.80;99.90;;;;;;5063476;28;20637;-74
2023/09/17 12:12:13;;;;;;;10.75;8.23;;;22.40;99.90;;;;;;5063184;28;20039;-73
2023/09/17 12:14:39;;;;;;;15.45;9.43;;;22.20;99.90;;;;;;5063223;28;20040;-75
2023/09/17 12:17:05;;;;;;;11.63;9.90;;;22.00;99.90;;;;;;5061457;28;20055;-76
2023/09/17 12:19:31;;;;;;;15.10;9.70;;;21.80;99.90;;;;;;5061055;28;20051;-76
2023/09/17 12:21:59;;;;;;;14.85;9.93;;;21.70;99.90;;;;;;5061101;28;20029;-76
2023/09/17 12:24:34;;;;;;;11.02;9.25;;;21.60;99.90;;;;;;5063446;28;20024;-75
2023/09/17 12:27:24;;;;;;;16.30;9.05;;;21.60;99.90;;;;;;5061465;28;20029;-75
2023/09/17 12:29:51;;;;;;;16.55;10.05;;;21.60;99.90;;;;;;5061867;28;20056;-76